AirNav   Air Wisconsin pilot careers
 
 1582 users online  

Y55 Crandon/Steve Conway Municipal Airport
Crandon, Wisconsin, USA

GOING TO CRANDON?


FAA INFORMATION EFFECTIVE 29 MARCH 2018

Location

FAA Identifier: Y55
Lat/Long: 45-31-21.5340N / 088-55-42.3743W
45-31.358900N / 088-55.706238W
45.5226483 / -88.9284373
(estimated)
Elevation: 1650 ft. / 502.9 m (surveyed)
Variation: 03W (2015)
From city: 3 miles SW of CRANDON, WI
Time zone: UTC -5 (UTC -6 during Standard Time)
Zip code: 54520

Airport Operations

Airport use: Open to the public
Activation date: 09/1958
Control tower: no
ARTCC: MINNEAPOLIS CENTER
FSS: GREEN BAY FLIGHT SERVICE STATION
NOTAMs facility: GRB (NOTAM-D service available)
Attendance: UNATNDD
Wind indicator: lighted
Segmented circle: no
Lights: MIRL RY 12/30 PRESET ON LOW INTST; TO INCR INTST & ACTVT - CTAF.
Beacon: white-green (lighted land airport)
Operates sunset to sunrise.

Airport Communications

CTAF: 122.9
  • APCH/DEP SVC PRVDD BY MINNEAPOLIS ARTCC ON FREQS 133.65/281.5 (RHINELANDER RCAG).

Nearby radio navigation aids

VOR radial/distance  VOR name  Freq  Var
RHIr105/23.2RHINELANDER VOR/DME109.2002E
IMTr245/38.5IRON MOUNTAIN VOR/DME111.2002W

Airport Services

Parking: tiedowns
Airframe service: NONE
Powerplant service: NONE
Bottled oxygen: NONE
Bulk oxygen: NONE

Runway Information

Runway 12/30

Dimensions: 3550 x 75 ft. / 1082 x 23 m
Surface: asphalt, in good condition
Weight bearing capacity: 
Single wheel: 12.0
Runway edge lights: medium intensity
Gradient: NW
RUNWAY 12  RUNWAY 30
Latitude: 45-31.542878N45-31.319537N
Longitude: 088-56.245392W088-55.477553W
Elevation: 1649.8 ft.1627.5 ft.
Gradient: 0.7%0.6% UP
Traffic pattern: leftleft
Markings: nonprecision, in fair conditionnonprecision, in fair condition
Runway end identifier lights: nono
Touchdown point: yes, no lightsyes, no lights
Obstructions: 59 ft. trees, 2200 ft. from runway, 150 ft. right of centerline, 34:1 slope to clear48 ft. trees, 1150 ft. from runway, 150 ft. left of centerline, 20:1 slope to clear

Runway 1/19

Dimensions: 2742 x 100 ft. / 836 x 30 m
80 FT STWY S END; 250 FT STWY N END.
Surface: turf, in fair condition
Runway edge markings: MARKED BY YELLOW CONES.
Gradient: N.
RUNWAY 1  RUNWAY 19
Latitude: 45-31.041122N45-31.489450N
Longitude: 088-55.541145W088-55.469357W
Elevation: 1614.5 ft.1626.8 ft.
Gradient: 0.4% UP0.4%
Traffic pattern: leftleft
Runway end identifier lights: nono
Touchdown point: yes, no lightsyes, no lights
Obstructions: 44 ft. trees, 1900 ft. from runway, 43:1 slope to clear64 ft. trees, 1150 ft. from runway, 150 ft. left of centerline, 18:1 slope to clear

Airport Ownership and Management from official FAA records

Ownership: Publicly-owned
Owner: CITY OF CRANDON
211 EAST MADISON
CRANDON, WI 54520
Phone 715-478-2400
Manager: NORMAN KNOLL
8765 MARY ST
ARGONNE, WI 54511
Phone 715-649-3225

Airport Operational Statistics

Aircraft based on the field: 9
Single engine airplanes: 8
Multi engine airplanes: 1
    
Aircraft operations: avg 84/week *
45% transient general aviation
45% local general aviation
9% air taxi
* for 12-month period ending 09 August 2017

Additional Remarks

OCNL DEER ON & INVOF ARPT.

Instrument Procedures

NOTE: All procedures below are presented as PDF files. If you need a reader for these files, you should download the free Adobe Reader.

NOT FOR NAVIGATION. Please procure official charts for flight.
FAA instrument procedures published for use from 29 March 2018 at 0901Z to 26 April 2018 at 0900Z.

 
IAPs - Instrument Approach Procedures
RNAV (GPS) RWY 12   download (205KB)
RNAV (GPS) RWY 30   download (214KB)
NOTE: Special Take-Off Minimums/Departure Procedures apply   download (293KB)

Other nearby airports with instrument procedures:

KAIG - Langlade County Airport (23 nm S)
KRHI - Rhinelander-Oneida County Airport (24 nm W)
KEGV - Eagle River Union Airport (28 nm NW)
KTKV - Tomahawk Regional Airport (37 nm W)
KRRL - Merrill Municipal Airport (38 nm SW)
 
Loc | Ops | Rwys | IFR | FBO | Links
Com | Nav | Svcs | Stats | Notes

AirNav Hotels Sweepstakes
 
Area around Y55 (Crandon/Steve Conway Municipal Airport)
 
Road maps at: MapQuest Bing Google
 
Aerial photo
WARNING: Photo may not be current or correct
Aerial photo of Y55 (Crandon/Steve Conway Municipal Airport)
Photo taken 23-Jul-2006
from a Mooney M20F, at an altitude of 1,500-2,000 AGL

Do you have a better or more recent aerial photo of Crandon/Steve Conway Municipal Airport that you would like to share? If so, please send us your photo.

 
Sectional chart

 
Airport distance calculator
Flying to Crandon/Steve Conway Municipal Airport? Find the distance to fly.

From to Y55

Sunrise and sunset
Times for 25-Apr-2018
 Local
(UTC-5)
 Zulu
(UTC)
Morning civil twilight05:2210:22
Sunrise05:5410:54
Sunset19:5300:53
Evening civil twilight20:2501:25

Current date and time
Zulu (UTC)  25-Apr-2018 20:30:00
Local (UTC-5)  25-Apr-2018 15:30:00
 
METAR
KRHI 
24nm W 
251953Z AUTO 10SM CLR 11/M04 A3008 RMK AO2 SLP197 T01061044
KEGV 
28nm NW 
252015Z AUTO 29007KT 10SM CLR 10/M08 A3006 RMK AO2 T00961081
KAIG 
32nm S 
252015Z AUTO 34007KT 10SM CLR 11/M02 A3006 RMK AO2 T01051024
KTKV 
37nm W 
252015Z AUTO 02005KT 10SM CLR 11/M06 A3007 RMK AO2 T01141061
KIMT 
38nm NE 
251954Z AUTO VRB03KT 10SM CLR 12/M05 A3004 RMK AO2 SLP183 T01171050
KRRL 
38nm SW 
252015Z AUTO 35006KT 10SM CLR 13/M04 A3007 RMK AO2 T01251038
KLNL 
40nm N 
252015Z AUTO 00000KT 10SM CLR 09/M08 A3007 RMK AO2 T00901083
KARV 
41nm NW 
252015Z AUTO 28004KT 10SM CLR 11/M05 A3006 RMK AO2 T01101047
KAUW 
46nm SW 
251954Z AUTO 29008KT 10SM CLR 12/M04 A3006 RMK AO2 SLP192 T01171039
KEZS 
47nm S 
252015Z AUTO 00000KT 10SM CLR 14/M03 A3006 RMK AO2 T01361029
TAF
KRHI 
24nm W 
251723Z 2518/2618 35006KT P6SM SKC FM252100 29005KT P6SM SKC FM260200 VRB03KT P6SM SKC FM261400 25008KT P6SM SKC
NOTAMs
Click for the latest NOTAMs
NOTAMs are issued by the DoD/FAA and will open in a separate window not controlled by AirNav.

 

 
 

Would you like to see your business listed on this page?

 If your business provides an interesting product or service to pilots, flight crews, aircraft, or users of the Crandon/Steve Conway Municipal Airport, you should consider listing it here.  To start the listing process, click on the button below
 
Add a business
 

Other Pages about Crandon/Steve Conway Municipal Airport

Page from the Wisconsin airport directory (PDF)
 
Update a link
 
Copyright © AirNav, LLC. All rights reserved. Privacy Policy  Contact